Time,TemperatureF,DewpointF,PressureIn,WindDirection,WindDirectionDegrees,WindSpeedMPH,WindSpeedGustMPH,Humidity,HourlyPrecipIn,Conditions,Clouds,dailyrainin,SoftwareType,DateUTC
2013-05-21 00:02:00,68.4,63.3,22.37,SE,135,0.0,4.0,84,0.01,,,0.01,meteohub,2013-05-21 05:02:00,
2013-05-21 00:07:00,68.2,63.5,22.38,South,180,0.0,3.0,85,0.01,,,0.01,meteohub,2013-05-21 05:07:00,
2013-05-21 00:12:00,67.8,63.9,22.37,West,270,0.0,1.0,87,0.01,,,0.01,meteohub,2013-05-21 05:12:00,
2013-05-21 00:17:00,67.5,63.9,22.37,West,270,0.0,0.0,88,0.01,,,0.01,meteohub,2013-05-21 05:17:00,
2013-05-21 00:22:00,67.1,64.4,22.36,SW,225,2.0,2.0,91,0.01,,,0.01,meteohub,2013-05-21 05:22:00,
2013-05-21 00:27:00,67.1,64.8,22.37,NW,315,4.0,4.0,92,0.00,,,0.01,meteohub,2013-05-21 05:27:00,
2013-05-21 00:32:00,67.6,64.9,22.37,SW,225,4.0,4.0,91,0.00,,,0.01,meteohub,2013-05-21 05:32:00,
2013-05-21 00:37:00,68.0,64.9,22.36,SW,225,3.0,5.0,90,0.00,,,0.01,meteohub,2013-05-21 05:37:00,
2013-05-21 00:42:00,68.4,64.9,22.36,SW,225,4.0,5.0,89,0.00,,,0.01,meteohub,2013-05-21 05:42:00,
2013-05-21 00:47:00,68.5,64.8,22.36,West,270,4.0,5.0,88,0.00,,,0.01,meteohub,2013-05-21 05:47:00,
2013-05-21 00:52:00,68.5,64.6,22.36,West,270,4.0,6.0,87,0.00,,,0.01,meteohub,2013-05-21 05:52:00,
2013-05-21 00:57:00,68.5,64.6,22.36,West,270,4.0,8.0,87,0.00,,,0.01,meteohub,2013-05-21 05:57:00,
2013-05-21 01:02:00,68.4,64.6,22.36,West,270,5.0,8.0,88,0.00,,,0.01,meteohub,2013-05-21 06:02:00,
2013-05-21 01:06:00,68.4,64.6,22.36,West,270,5.0,8.0,88,0.00,,,0.01,meteohub,2013-05-21 06:06:00,
2013-05-21 01:12:00,68.2,64.8,22.36,West,270,4.0,5.0,89,0.00,,,0.01,meteohub,2013-05-21 06:12:00,
2013-05-21 01:17:00,68.2,64.8,22.37,SW,225,6.0,6.0,89,0.00,,,0.01,meteohub,2013-05-21 06:17:00,
2013-05-21 01:22:00,68.4,64.6,22.36,SW,225,11.0,11.0,88,0.00,,,0.01,meteohub,2013-05-21 06:22:00,
2013-05-21 01:27:00,68.5,64.2,22.36,SW,225,7.0,11.0,86,0.00,,,0.01,meteohub,2013-05-21 06:27:00,
2013-05-21 01:32:00,68.5,63.9,22.37,West,270,9.0,11.0,85,0.00,,,0.01,meteohub,2013-05-21 06:32:00,
2013-05-21 01:37:00,68.7,63.7,22.37,SW,225,4.0,11.0,84,0.00,,,0.01,meteohub,2013-05-21 06:37:00,
2013-05-21 01:42:00,68.5,63.5,22.37,SW,225,7.0,9.0,84,0.00,,,0.01,meteohub,2013-05-21 06:42:00,
2013-05-21 01:47:00,68.5,63.1,22.36,SW,225,5.0,9.0,83,0.00,,,0.01,meteohub,2013-05-21 06:47:00,
2013-05-21 01:52:00,68.5,63.1,22.37,NW,315,8.0,10.0,83,0.00,,,0.01,meteohub,2013-05-21 06:52:00,
2013-05-21 01:57:00,68.7,63.3,22.37,West,270,11.0,11.0,83,0.00,,,0.01,meteohub,2013-05-21 06:57:00,
2013-05-21 02:02:00,68.9,62.8,22.37,SW,225,7.0,11.0,81,0.00,,,0.01,meteohub,2013-05-21 07:02:00,
2013-05-21 02:06:00,69.1,63.0,22.37,West,270,11.0,11.0,81,0.00,,,0.01,meteohub,2013-05-21 07:06:00,
2013-05-21 02:12:00,69.1,62.6,22.37,NW,315,7.0,11.0,80,0.00,,,0.01,meteohub,2013-05-21 07:12:00,
2013-05-21 02:17:00,69.3,62.8,22.37,NW,315,14.0,14.0,80,0.00,,,0.01,meteohub,2013-05-21 07:17:00,
2013-05-21 02:22:00,69.4,62.2,22.38,West,270,8.0,14.0,78,0.00,,,0.01,meteohub,2013-05-21 07:22:00,
2013-05-21 02:27:00,69.4,61.5,22.38,West,270,11.0,15.0,76,0.00,,,0.01,meteohub,2013-05-21 07:27:00,
2013-05-21 02:32:00,69.6,61.3,22.38,West,270,5.0,15.0,75,0.00,,,0.01,meteohub,2013-05-21 07:32:00,
2013-05-21 02:37:00,69.6,61.0,22.38,NW,315,8.0,15.0,74,0.00,,,0.01,meteohub,2013-05-21 07:37:00,
2013-05-21 02:42:00,69.3,61.0,22.38,SW,225,8.0,14.0,75,0.00,,,0.01,meteohub,2013-05-21 07:42:00,
2013-05-21 02:47:00,69.4,60.4,22.38,West,270,10.0,15.0,73,0.00,,,0.01,meteohub,2013-05-21 07:47:00,
2013-05-21 02:52:00,69.4,60.4,22.38,West,270,10.0,15.0,73,0.00,,,0.01,meteohub,2013-05-21 07:52:00,
2013-05-21 02:57:00,69.4,60.1,22.37,West,270,11.0,15.0,72,0.00,,,0.01,meteohub,2013-05-21 07:57:00,
2013-05-21 03:02:00,69.3,59.9,22.37,West,270,8.0,14.0,72,0.00,,,0.01,meteohub,2013-05-21 08:02:00,
2013-05-21 03:07:00,69.3,59.9,22.37,West,270,8.0,13.0,72,0.00,,,0.01,meteohub,2013-05-21 08:07:00,
2013-05-21 03:12:00,68.9,59.9,22.38,WNW,293,11.0,12.0,73,0.00,,,0.01,meteohub,2013-05-21 08:12:00,
2013-05-21 03:17:00,68.5,59.5,22.38,West,270,9.0,15.0,73,0.00,,,0.01,meteohub,2013-05-21 08:17:00,
2013-05-21 03:22:00,68.4,59.7,22.38,North,0,10.0,15.0,74,0.00,,,0.01,meteohub,2013-05-21 08:22:00,
2013-05-21 03:27:00,68.2,59.9,22.38,West,270,12.0,12.0,75,0.00,,,0.01,meteohub,2013-05-21 08:27:00,
2013-05-21 03:31:00,68.0,59.7,22.37,West,270,11.0,12.0,75,0.00,,,0.01,meteohub,2013-05-21 08:31:00,
2013-05-21 03:36:00,68.2,60.3,22.38,SW,225,10.0,12.0,76,0.00,,,0.01,meteohub,2013-05-21 08:36:00,
2013-05-21 03:41:00,68.0,60.1,22.38,West,270,7.0,14.0,76,0.00,,,0.01,meteohub,2013-05-21 08:41:00,
2013-05-21 03:46:00,67.8,60.6,22.39,SW,225,3.0,14.0,78,0.00,,,0.01,meteohub,2013-05-21 08:46:00,
2013-05-21 03:51:00,67.5,60.8,22.39,West,270,5.0,10.0,79,0.00,,,0.01,meteohub,2013-05-21 08:51:00,
2013-05-21 03:56:00,67.5,60.8,22.38,West,270,3.0,7.0,79,0.00,,,0.01,meteohub,2013-05-21 08:56:00,
2013-05-21 04:01:00,67.3,61.0,22.39,SE,135,2.0,6.0,80,0.00,,,0.01,meteohub,2013-05-21 09:01:00,
2013-05-21 04:06:00,66.9,60.6,22.40,NE,45,0.0,5.0,80,0.00,,,0.01,meteohub,2013-05-21 09:06:00,
2013-05-21 04:11:00,66.6,60.6,22.39,NE,45,0.0,3.0,81,0.00,,,0.01,meteohub,2013-05-21 09:11:00,
2013-05-21 04:16:00,66.2,60.6,22.39,SW,225,0.0,3.0,82,0.00,,,0.01,meteohub,2013-05-21 09:16:00,
2013-05-21 04:21:00,65.5,60.8,22.39,SW,225,3.0,3.0,85,0.00,,,0.01,meteohub,2013-05-21 09:21:00,
2013-05-21 04:26:00,65.1,60.8,22.39,West,270,3.0,4.0,86,0.00,,,0.01,meteohub,2013-05-21 09:26:00,
2013-05-21 04:31:00,65.1,60.8,22.39,SW,225,3.0,4.0,86,0.00,,,0.01,meteohub,2013-05-21 09:31:00,
2013-05-21 04:36:00,65.3,61.0,22.38,West,270,6.0,6.0,86,0.00,,,0.01,meteohub,2013-05-21 09:36:00,
2013-05-21 04:41:00,65.1,60.4,22.39,NW,315,3.0,6.0,85,0.00,,,0.01,meteohub,2013-05-21 09:41:00,
2013-05-21 04:47:00,65.1,60.4,22.38,NW,315,4.0,6.0,85,0.00,,,0.01,meteohub,2013-05-21 09:47:00,
2013-05-21 04:52:00,65.1,60.4,22.38,NW,315,4.0,6.0,85,0.00,,,0.01,meteohub,2013-05-21 09:52:00,
2013-05-21 04:57:00,64.8,60.4,22.37,SW,225,2.0,4.0,86,0.00,,,0.01,meteohub,2013-05-21 09:57:00,
2013-05-21 05:02:00,64.6,60.3,22.38,NW,315,3.0,4.0,86,0.00,,,0.01,meteohub,2013-05-21 10:02:00,
2013-05-21 05:07:00,64.6,60.3,22.37,NW,315,3.0,4.0,86,0.00,,,0.01,meteohub,2013-05-21 10:07:00,
2013-05-21 05:12:00,64.0,59.7,22.37,NW,315,5.0,5.0,86,0.00,,,0.01,meteohub,2013-05-21 10:12:00,
2013-05-21 05:17:00,63.9,59.5,22.37,NW,315,3.0,5.0,86,0.00,,,0.01,meteohub,2013-05-21 10:17:00,
2013-05-21 05:22:00,63.9,59.9,22.37,West,270,3.0,5.0,87,0.00,,,0.01,meteohub,2013-05-21 10:22:00,
2013-05-21 05:26:00,63.7,59.7,22.37,West,270,5.0,5.0,87,0.00,,,0.01,meteohub,2013-05-21 10:26:00,
2013-05-21 05:31:00,63.7,59.7,22.37,NNW,338,4.0,5.0,87,0.00,,,0.01,meteohub,2013-05-21 10:31:00,
2013-05-21 05:36:00,63.7,59.7,22.37,West,270,4.0,5.0,87,0.00,,,0.01,meteohub,2013-05-21 10:36:00,
2013-05-21 05:41:00,63.7,59.7,22.36,West,270,3.0,5.0,87,0.00,,,0.01,meteohub,2013-05-21 10:41:00,
2013-05-21 05:46:00,63.7,59.7,22.36,West,270,0.0,5.0,87,0.00,,,0.01,meteohub,2013-05-21 10:46:00,
2013-05-21 05:51:00,63.5,59.5,22.36,West,270,2.0,5.0,87,0.00,,,0.01,meteohub,2013-05-21 10:51:00,
2013-05-21 05:57:00,63.1,59.5,22.36,West,270,2.0,3.0,88,0.00,,,0.01,meteohub,2013-05-21 10:57:00,
2013-05-21 06:02:00,63.1,59.5,22.36,West,270,2.0,3.0,88,0.00,,,0.01,meteohub,2013-05-21 11:02:00,
2013-05-21 06:07:00,63.1,59.5,22.36,West,270,3.0,4.0,88,0.00,,,0.01,meteohub,2013-05-21 11:07:00,
2013-05-21 06:12:00,63.3,59.7,22.36,West,270,5.0,5.0,88,0.00,,,0.01,meteohub,2013-05-21 11:12:00,
2013-05-21 06:17:00,63.5,59.9,22.36,SW,225,4.0,5.0,88,0.00,,,0.01,meteohub,2013-05-21 11:17:00,
2013-05-21 06:22:00,63.7,60.1,22.36,SW,225,2.0,7.0,88,0.00,,,0.01,meteohub,2013-05-21 11:22:00,
2013-05-21 06:27:00,63.9,60.3,22.36,SW,225,3.0,7.0,88,0.00,,,0.01,meteohub,2013-05-21 11:27:00,
2013-05-21 06:32:00,64.2,60.6,22.36,West,270,3.0,5.0,88,0.00,,,0.01,meteohub,2013-05-21 11:32:00,
2013-05-21 06:37:00,64.4,60.8,22.36,WNW,293,3.0,4.0,88,0.00,,,0.01,meteohub,2013-05-21 11:37:00,
2013-05-21 06:42:00,64.9,61.3,22.36,West,270,6.0,6.0,88,0.00,,,0.01,meteohub,2013-05-21 11:42:00,
2013-05-21 06:47:00,65.3,61.0,22.36,North,0,8.0,8.0,86,0.00,,,0.01,meteohub,2013-05-21 11:47:00,
2013-05-21 06:52:00,65.5,60.8,22.36,West,270,6.0,8.0,85,0.00,,,0.01,meteohub,2013-05-21 11:52:00,
2013-05-21 06:57:00,65.8,61.2,22.36,SW,225,4.0,8.0,85,0.00,,,0.01,meteohub,2013-05-21 11:57:00,
2013-05-21 07:02:00,66.0,61.3,22.36,NW,315,2.0,8.0,85,0.00,,,0.01,meteohub,2013-05-21 12:02:00,
2013-05-21 07:07:00,66.0,61.3,22.36,NW,315,2.0,8.0,85,0.00,,,0.01,meteohub,2013-05-21 12:07:00,
2013-05-21 07:12:00,66.6,61.2,22.35,West,270,11.0,11.0,83,0.00,,,0.01,meteohub,2013-05-21 12:12:00,
2013-05-21 07:17:00,66.6,61.2,22.35,West,270,8.0,15.0,83,0.00,,,0.01,meteohub,2013-05-21 12:17:00,
2013-05-21 07:22:00,66.6,61.2,22.35,West,270,9.0,15.0,83,0.00,,,0.01,meteohub,2013-05-21 12:22:00,
2013-05-21 07:27:00,66.4,61.0,22.35,South,180,4.0,15.0,83,0.00,,,0.01,meteohub,2013-05-21 12:27:00,
2013-05-21 07:32:00,66.4,61.0,22.35,SW,225,5.0,9.0,83,0.00,,,0.01,meteohub,2013-05-21 12:32:00,
2013-05-21 07:37:00,66.6,61.2,22.35,West,270,17.0,17.0,83,0.00,,,0.01,meteohub,2013-05-21 12:37:00,
2013-05-21 07:42:00,66.6,61.2,22.35,West,270,8.0,17.0,83,0.00,,,0.01,meteohub,2013-05-21 12:42:00,
2013-05-21 07:47:00,67.1,61.7,22.35,West,270,3.0,17.0,83,0.00,,,0.01,meteohub,2013-05-21 12:47:00,
2013-05-21 07:52:00,67.6,61.9,22.35,SW,225,8.0,17.0,82,0.00,,,0.01,meteohub,2013-05-21 12:52:00,
2013-05-21 07:57:00,68.0,61.5,22.36,SW,225,11.0,15.0,80,0.00,,,0.01,meteohub,2013-05-21 12:57:00,
2013-05-21 08:02:00,68.4,61.9,22.37,SW,225,11.0,15.0,80,0.00,,,0.01,meteohub,2013-05-21 13:02:00,
2013-05-21 08:07:00,68.5,62.1,22.36,NW,315,8.0,15.0,80,0.00,,,0.01,meteohub,2013-05-21 13:07:00,
2013-05-21 08:12:00,68.5,61.7,22.36,NW,315,11.0,15.0,79,0.00,,,0.01,meteohub,2013-05-21 13:12:00,
2013-05-21 08:17:00,68.2,61.7,22.36,West,270,10.0,14.0,80,0.00,,,0.01,meteohub,2013-05-21 13:17:00,
2013-05-21 08:22:00,68.2,61.7,22.36,West,270,14.0,14.0,80,0.00,,,0.01,meteohub,2013-05-21 13:22:00,
2013-05-21 08:27:00,68.4,61.5,22.36,West,270,8.0,14.0,79,0.00,,,0.01,meteohub,2013-05-21 13:27:00,
2013-05-21 08:32:00,69.1,61.9,22.36,SW,225,8.0,15.0,78,0.00,,,0.01,meteohub,2013-05-21 13:32:00,
2013-05-21 08:37:00,69.6,61.7,22.36,West,270,8.0,15.0,76,0.00,,,0.01,meteohub,2013-05-21 13:37:00,
2013-05-21 08:42:00,70.2,61.9,22.37,SW,225,10.0,12.0,75,0.00,,,0.01,meteohub,2013-05-21 13:42:00,
2013-05-21 08:47:00,70.2,61.5,22.37,West,270,8.0,11.0,74,0.00,,,0.01,meteohub,2013-05-21 13:47:00,
2013-05-21 08:52:00,70.5,61.9,22.36,West,270,8.0,10.0,74,0.00,,,0.01,meteohub,2013-05-21 13:52:00,
2013-05-21 08:57:00,70.7,61.7,22.36,North,0,9.0,10.0,73,0.00,,,0.01,meteohub,2013-05-21 13:57:00,
2013-05-21 09:02:00,71.2,62.1,22.36,West,270,7.0,12.0,73,0.00,,,0.01,meteohub,2013-05-21 14:02:00,
2013-05-21 09:07:00,70.9,61.3,22.36,NW,315,10.0,12.0,72,0.00,,,0.01,meteohub,2013-05-21 14:07:00,
2013-05-21 09:12:00,70.2,61.5,22.36,West,270,8.0,15.0,74,0.00,,,0.01,meteohub,2013-05-21 14:12:00,
2013-05-21 09:17:00,71.2,62.1,22.36,North,0,11.0,15.0,73,0.00,,,0.01,meteohub,2013-05-21 14:17:00,
2013-05-21 09:22:00,70.5,61.5,22.36,SW,225,7.0,15.0,73,0.00,,,0.01,meteohub,2013-05-21 14:22:00,
2013-05-21 09:27:00,71.8,62.2,22.36,NW,315,9.0,14.0,72,0.00,,,0.01,meteohub,2013-05-21 14:27:00,
2013-05-21 09:32:00,71.8,61.9,22.36,West,270,7.0,14.0,71,0.00,,,0.01,meteohub,2013-05-21 14:32:00,
2013-05-21 09:37:00,71.2,62.1,22.36,West,270,9.0,10.0,73,0.00,,,0.01,meteohub,2013-05-21 14:37:00,
2013-05-21 09:42:00,71.6,62.1,22.36,West,270,10.0,11.0,72,0.00,,,0.01,meteohub,2013-05-21 14:42:00,
2013-05-21 09:47:00,71.4,62.8,22.36,NW,315,7.0,11.0,74,0.00,,,0.01,meteohub,2013-05-21 14:47:00,
2013-05-21 09:52:00,72.0,62.4,22.36,SW,225,8.0,11.0,72,0.00,,,0.01,meteohub,2013-05-21 14:52:00,
2013-05-21 09:57:00,72.0,62.4,22.36,SW,225,11.0,11.0,72,0.00,,,0.01,meteohub,2013-05-21 14:57:00,
2013-05-21 10:02:00,71.2,62.6,22.36,South,180,11.0,11.0,74,0.00,,,0.01,meteohub,2013-05-21 15:02:00,
2013-05-21 10:07:00,71.1,62.8,22.35,West,270,8.0,11.0,75,0.00,,,0.01,meteohub,2013-05-21 15:07:00,
2013-05-21 10:12:00,71.2,63.3,22.35,West,270,7.0,11.0,76,0.00,,,0.01,meteohub,2013-05-21 15:12:00,
2013-05-21 10:17:00,71.1,62.4,22.35,West,270,4.0,11.0,74,0.00,,,0.01,meteohub,2013-05-21 15:17:00,
2013-05-21 10:22:00,70.7,62.1,22.35,West,270,10.0,11.0,74,0.00,,,0.01,meteohub,2013-05-21 15:22:00,
2013-05-21 10:27:00,70.0,61.7,22.35,West,270,7.0,11.0,75,0.00,,,0.01,meteohub,2013-05-21 15:27:00,
2013-05-21 10:32:00,70.2,62.2,22.35,North,0,8.0,14.0,76,0.00,,,0.01,meteohub,2013-05-21 15:32:00,
2013-05-21 10:37:00,70.9,63.0,22.36,SW,225,15.0,15.0,76,0.00,,,0.01,meteohub,2013-05-21 15:37:00,
2013-05-21 10:42:00,71.1,62.4,22.36,West,270,6.0,15.0,74,0.00,,,0.01,meteohub,2013-05-21 15:42:00,
2013-05-21 10:47:00,70.7,62.4,22.35,West,270,9.0,15.0,75,0.00,,,0.01,meteohub,2013-05-21 15:47:00,
2013-05-21 10:52:00,70.2,62.2,22.35,West,270,9.0,15.0,76,0.00,,,0.01,meteohub,2013-05-21 15:52:00,
2013-05-21 10:57:00,69.6,62.4,22.35,West,270,10.0,15.0,78,0.00,,,0.01,meteohub,2013-05-21 15:57:00,
2013-05-21 11:02:00,69.8,62.6,22.35,NW,315,11.0,15.0,78,0.00,,,0.01,meteohub,2013-05-21 16:02:00,
2013-05-21 11:07:00,70.7,63.5,22.35,SW,225,4.0,15.0,78,0.00,,,0.01,meteohub,2013-05-21 16:07:00,
2013-05-21 11:12:00,70.9,62.6,22.35,West,270,8.0,11.0,75,0.00,,,0.01,meteohub,2013-05-21 16:12:00,
2013-05-21 11:17:00,70.5,62.2,22.36,West,270,8.0,11.0,75,0.00,,,0.01,meteohub,2013-05-21 16:17:00,
2013-05-21 11:22:00,70.7,62.8,22.35,NW,315,8.0,11.0,76,0.00,,,0.01,meteohub,2013-05-21 16:22:00,
2013-05-21 11:27:00,70.3,62.4,22.35,West,270,11.0,11.0,76,0.00,,,0.01,meteohub,2013-05-21 16:27:00,
2013-05-21 11:32:00,71.2,63.3,22.36,NW,315,7.0,13.0,76,0.00,,,0.01,meteohub,2013-05-21 16:32:00,
2013-05-21 11:37:00,72.1,62.6,22.36,West,270,9.0,15.0,72,0.00,,,0.01,meteohub,2013-05-21 16:37:00,
2013-05-21 11:42:00,72.5,62.2,22.36,West,270,14.0,15.0,70,0.00,,,0.01,meteohub,2013-05-21 16:42:00,
2013-05-21 11:55:00,73.9,63.1,22.37,NW,315,15.0,19.0,69,0.00,,,0.01,meteohub,2013-05-21 16:55:00,
2013-05-21 12:11:00,75.0,62.4,22.37,NW,315,10.0,23.0,65,0.00,,,0.01,meteohub,2013-05-21 17:11:00,
2013-05-21 12:16:00,75.2,60.8,22.37,North,0,16.0,23.0,61,0.00,,,0.01,meteohub,2013-05-21 17:16:00,
2013-05-21 12:19:00,75.0,61.5,22.38,West,270,13.0,23.0,63,0.00,,,0.01,meteohub,2013-05-21 17:19:00,
2013-05-21 12:27:00,74.5,61.5,22.38,NW,315,8.0,17.0,64,0.00,,,0.01,meteohub,2013-05-21 17:27:00,
2013-05-21 12:34:00,75.4,59.0,22.38,South,180,9.0,17.0,57,0.00,,,0.01,meteohub,2013-05-21 17:34:00,
2013-05-21 12:44:00,75.4,57.6,22.37,West,270,11.0,18.0,54,0.00,,,0.01,meteohub,2013-05-21 17:44:00,
2013-05-21 12:54:00,74.3,59.0,22.38,NW,315,13.0,18.0,59,0.00,,,0.01,meteohub,2013-05-21 17:54:00,
2013-05-21 12:59:00,76.6,59.7,22.38,North,0,17.0,18.0,56,0.00,,,0.01,meteohub,2013-05-21 17:59:00,
2013-05-21 13:04:00,77.4,59.4,22.38,SW,225,8.0,15.0,54,0.00,,,0.01,meteohub,2013-05-21 18:04:00,
2013-05-21 13:09:00,76.1,58.3,22.38,NW,315,11.0,18.0,54,0.00,,,0.01,meteohub,2013-05-21 18:09:00,
2013-05-21 13:14:00,75.0,58.3,22.37,West,270,12.0,18.0,56,0.00,,,0.01,meteohub,2013-05-21 18:14:00,
2013-05-21 13:19:00,74.8,58.6,22.37,SW,225,8.0,17.0,57,0.00,,,0.01,meteohub,2013-05-21 18:19:00,
2013-05-21 13:24:00,74.8,58.1,22.37,North,0,8.0,17.0,56,0.00,,,0.01,meteohub,2013-05-21 18:24:00,
2013-05-21 13:30:00,74.5,57.7,22.36,NW,315,5.0,15.0,56,0.00,,,0.01,meteohub,2013-05-21 18:30:00,
2013-05-21 13:36:00,75.0,58.3,22.37,NW,315,5.0,14.0,56,0.00,,,0.01,meteohub,2013-05-21 18:36:00,
2013-05-21 13:41:00,77.4,58.8,22.37,WSW,248,13.0,13.0,53,0.00,,,0.01,meteohub,2013-05-21 18:41:00,
2013-05-21 13:47:00,77.7,58.1,22.37,NE,45,12.0,13.0,51,0.00,,,0.01,meteohub,2013-05-21 18:47:00,
2013-05-21 13:52:00,76.3,57.9,22.37,North,0,10.0,13.0,53,0.00,,,0.01,meteohub,2013-05-21 18:52:00,
2013-05-21 13:57:00,76.6,59.2,22.36,SW,225,9.0,13.0,55,0.00,,,0.01,meteohub,2013-05-21 18:57:00,
2013-05-21 14:02:00,76.5,58.1,22.36,NW,315,15.0,21.0,53,0.00,,,0.01,meteohub,2013-05-21 19:02:00,
2013-05-21 14:07:00,75.7,57.4,22.35,West,270,16.0,21.0,53,0.00,,,0.01,meteohub,2013-05-21 19:07:00,
2013-05-21 14:12:00,75.9,58.1,22.36,West,270,8.0,21.0,54,0.00,,,0.01,meteohub,2013-05-21 19:12:00,
2013-05-21 14:17:00,77.7,59.2,22.36,West,270,10.0,18.0,53,0.00,,,0.01,meteohub,2013-05-21 19:17:00,
2013-05-21 14:22:00,77.2,57.7,22.36,North,0,9.0,17.0,51,0.00,,,0.01,meteohub,2013-05-21 19:22:00,
2013-05-21 14:28:00,76.1,57.7,22.35,NW,315,11.0,17.0,53,0.00,,,0.01,meteohub,2013-05-21 19:28:00,
2013-05-21 14:33:00,75.9,58.6,22.35,West,270,14.0,17.0,55,0.00,,,0.01,meteohub,2013-05-21 19:33:00,
2013-05-21 14:38:00,75.0,58.8,22.35,WSW,248,12.0,17.0,57,0.00,,,0.01,meteohub,2013-05-21 19:38:00,
2013-05-21 14:43:00,74.8,58.6,22.36,West,270,14.0,17.0,57,0.00,,,0.01,meteohub,2013-05-21 19:43:00,
2013-05-21 14:48:00,74.8,58.1,22.35,West,270,15.0,17.0,56,0.00,,,0.01,meteohub,2013-05-21 19:48:00,
2013-05-21 14:53:00,74.8,58.6,22.35,North,0,8.0,19.0,57,0.00,,,0.01,meteohub,2013-05-21 19:53:00,
2013-05-21 14:58:00,75.4,58.1,22.35,West,270,11.0,19.0,55,0.00,,,0.01,meteohub,2013-05-21 19:58:00,
2013-05-21 15:04:00,75.0,58.3,22.36,NW,315,12.0,19.0,56,0.00,,,0.01,meteohub,2013-05-21 20:04:00,
2013-05-21 15:09:00,74.5,57.7,22.35,West,270,9.0,15.0,56,0.00,,,0.01,meteohub,2013-05-21 20:09:00,
2013-05-21 15:14:00,74.5,57.7,22.35,NW,315,10.0,15.0,56,0.00,,,0.01,meteohub,2013-05-21 20:14:00,
2013-05-21 15:19:00,75.0,58.8,22.35,West,270,6.0,15.0,57,0.00,,,0.01,meteohub,2013-05-21 20:19:00,
2013-05-21 15:24:00,75.0,57.7,22.35,West,270,15.0,15.0,55,0.00,,,0.01,meteohub,2013-05-21 20:24:00,
2013-05-21 15:33:00,74.7,57.9,22.35,NW,315,9.0,16.0,56,0.00,,,0.01,meteohub,2013-05-21 20:33:00,
2013-05-21 15:38:00,75.4,58.1,22.35,SW,225,11.0,16.0,55,0.00,,,0.01,meteohub,2013-05-21 20:38:00,
2013-05-21 15:43:00,75.4,57.6,22.35,NW,315,6.0,15.0,54,0.00,,,0.01,meteohub,2013-05-21 20:43:00,
2013-05-21 15:49:00,75.2,57.9,22.35,North,0,10.0,15.0,55,0.00,,,0.01,meteohub,2013-05-21 20:49:00,
2013-05-21 15:54:00,75.0,57.7,22.35,SW,225,8.0,13.0,55,0.00,,,0.01,meteohub,2013-05-21 20:54:00,
2013-05-21 15:59:00,75.0,58.3,22.35,NW,315,6.0,13.0,56,0.00,,,0.01,meteohub,2013-05-21 20:59:00,
2013-05-21 16:04:00,75.0,58.8,22.35,NW,315,11.0,12.0,57,0.00,,,0.01,meteohub,2013-05-21 21:04:00,
2013-05-21 16:09:00,74.5,57.2,22.35,South,180,8.0,11.0,55,0.00,,,0.01,meteohub,2013-05-21 21:09:00,
2013-05-21 16:14:00,74.5,58.3,22.35,North,0,5.0,13.0,57,0.00,,,0.01,meteohub,2013-05-21 21:14:00,
2013-05-21 16:19:00,76.6,60.3,22.35,West,270,14.0,14.0,57,0.00,,,0.01,meteohub,2013-05-21 21:19:00,
2013-05-21 16:24:00,77.2,58.3,22.35,WNW,293,12.0,13.0,52,0.00,,,0.01,meteohub,2013-05-21 21:24:00,
2013-05-21 16:29:00,77.9,58.3,22.35,NW,315,11.0,14.0,51,0.00,,,0.01,meteohub,2013-05-21 21:29:00,
2013-05-21 16:34:00,77.7,58.1,22.34,North,0,11.0,22.0,51,0.00,,,0.01,meteohub,2013-05-21 21:34:00,
2013-05-21 16:39:00,76.8,57.9,22.35,SW,225,11.0,22.0,52,0.00,,,0.01,meteohub,2013-05-21 21:39:00,
2013-05-21 16:44:00,76.3,57.4,22.34,NW,315,15.0,22.0,52,0.00,,,0.01,meteohub,2013-05-21 21:44:00,
2013-05-21 16:49:00,75.6,57.2,22.35,West,270,15.0,15.0,53,0.00,,,0.01,meteohub,2013-05-21 21:49:00,
2013-05-21 16:54:00,77.4,57.7,22.34,NW,315,10.0,18.0,51,0.00,,,0.01,meteohub,2013-05-21 21:54:00,
2013-05-21 16:59:00,77.4,57.2,22.34,West,270,16.0,18.0,50,0.00,,,0.01,meteohub,2013-05-21 21:59:00,
2013-05-21 17:04:00,76.6,56.7,22.34,West,270,8.0,18.0,50,0.00,,,0.01,meteohub,2013-05-21 22:04:00,
2013-05-21 17:09:00,75.2,56.8,22.34,West,270,9.0,17.0,53,0.00,,,0.01,meteohub,2013-05-21 22:09:00,
2013-05-21 17:14:00,74.7,57.4,22.34,NW,315,2.0,17.0,55,0.00,,,0.01,meteohub,2013-05-21 22:14:00,
2013-05-21 17:20:00,74.7,57.4,22.34,West,270,5.0,17.0,55,0.00,,,0.01,meteohub,2013-05-21 22:20:00,
2013-05-21 17:24:00,74.3,57.6,22.33,West,270,7.0,15.0,56,0.00,,,0.01,meteohub,2013-05-21 22:24:00,
2013-05-21 17:29:00,74.3,57.0,22.34,North,0,6.0,12.0,55,0.00,,,0.01,meteohub,2013-05-21 22:29:00,
2013-05-21 17:35:00,73.6,56.8,22.33,North,0,8.0,12.0,56,0.00,,,0.01,meteohub,2013-05-21 22:35:00,
2013-05-21 17:40:00,73.4,56.7,22.33,NW,315,11.0,11.0,56,0.00,,,0.01,meteohub,2013-05-21 22:40:00,
2013-05-21 17:45:00,75.4,57.0,22.33,NW,315,16.0,16.0,53,0.00,,,0.01,meteohub,2013-05-21 22:45:00,
2013-05-21 17:50:00,75.6,56.7,22.33,West,270,15.0,15.0,52,0.00,,,0.01,meteohub,2013-05-21 22:50:00,
2013-05-21 17:55:00,75.9,57.6,22.33,NW,315,10.0,16.0,53,0.00,,,0.01,meteohub,2013-05-21 22:55:00,
2013-05-21 18:00:00,74.7,56.8,22.33,SW,225,6.0,16.0,54,0.00,,,0.01,meteohub,2013-05-21 23:00:00,
2013-05-21 18:04:00,73.9,56.8,22.33,West,270,8.0,16.0,55,0.00,,,0.01,meteohub,2013-05-21 23:04:00,
2013-05-21 18:10:00,74.5,57.2,22.33,NNW,338,8.0,15.0,55,0.00,,,0.01,meteohub,2013-05-21 23:10:00,
2013-05-21 18:15:00,73.6,56.8,22.33,SW,225,8.0,13.0,56,0.00,,,0.01,meteohub,2013-05-21 23:15:00,
2013-05-21 18:20:00,72.9,56.7,22.33,West,270,7.0,11.0,57,0.00,,,0.01,meteohub,2013-05-21 23:20:00,
2013-05-21 18:25:00,72.5,57.4,22.33,West,270,8.0,12.0,59,0.00,,,0.01,meteohub,2013-05-21 23:25:00,
2013-05-21 18:30:00,72.1,57.0,22.33,NW,315,7.0,12.0,59,0.00,,,0.01,meteohub,2013-05-21 23:30:00,
2013-05-21 18:35:00,72.1,57.6,22.33,SW,225,4.0,10.0,60,0.00,,,0.01,meteohub,2013-05-21 23:35:00,
2013-05-21 18:40:00,72.9,57.7,22.32,SW,225,8.0,9.0,59,0.00,,,0.01,meteohub,2013-05-21 23:40:00,
2013-05-21 18:45:00,72.3,57.2,22.32,West,270,5.0,10.0,59,0.00,,,0.01,meteohub,2013-05-21 23:45:00,
2013-05-21 18:50:00,72.0,56.8,22.33,West,270,5.0,10.0,59,0.00,,,0.01,meteohub,2013-05-21 23:50:00,
2013-05-21 18:55:00,71.8,56.7,22.33,North,0,7.0,10.0,59,0.00,,,0.01,meteohub,2013-05-21 23:55:00,
2013-05-21 19:00:00,71.6,57.0,22.33,South,180,6.0,9.0,60,0.00,,,0.01,meteohub,2013-05-22 00:00:00,
2013-05-21 19:05:00,71.4,57.2,22.33,NE,45,3.0,9.0,61,0.00,,,0.00,meteohub,2013-05-22 00:05:00,
2013-05-21 19:10:00,71.4,57.2,22.32,NW,315,4.0,9.0,61,0.00,,,0.00,meteohub,2013-05-22 00:10:00,
2013-05-21 19:15:00,71.4,57.2,22.32,SW,225,4.0,7.0,61,0.00,,,0.00,meteohub,2013-05-22 00:15:00,
2013-05-21 19:20:00,71.2,57.0,22.32,NW,315,3.0,7.0,61,0.00,,,0.00,meteohub,2013-05-22 00:20:00,
2013-05-21 19:25:00,70.9,57.2,22.32,West,270,2.0,8.0,62,0.00,,,0.00,meteohub,2013-05-22 00:25:00,
2013-05-21 19:30:00,70.9,57.2,22.32,NW,315,7.0,8.0,62,0.00,,,0.00,meteohub,2013-05-22 00:30:00,
2013-05-21 19:35:00,70.7,57.0,22.31,North,0,6.0,8.0,62,0.00,,,0.00,meteohub,2013-05-22 00:35:00,
2013-05-21 19:40:00,70.5,57.4,22.32,West,270,3.0,7.0,63,0.00,,,0.00,meteohub,2013-05-22 00:40:00,
2013-05-21 19:45:00,70.3,57.2,22.32,NW,315,3.0,6.0,63,0.00,,,0.00,meteohub,2013-05-22 00:45:00,
2013-05-21 19:50:00,70.2,57.4,22.31,NW,315,4.0,6.0,64,0.00,,,0.00,meteohub,2013-05-22 00:50:00,
2013-05-21 19:55:00,70.0,57.2,22.31,East,90,3.0,6.0,64,0.00,,,0.00,meteohub,2013-05-22 00:55:00,
2013-05-21 20:00:00,69.8,57.0,22.31,North,0,4.0,6.0,64,0.00,,,0.00,meteohub,2013-05-22 01:00:00,
2013-05-21 20:05:00,69.6,57.4,22.30,SW,225,3.0,6.0,65,0.00,,,0.00,meteohub,2013-05-22 01:05:00,
2013-05-21 20:10:00,69.6,57.7,22.30,NNW,338,2.0,6.0,66,0.00,,,0.00,meteohub,2013-05-22 01:10:00,
2013-05-21 20:15:00,69.4,57.2,22.30,NW,315,4.0,6.0,65,0.00,,,0.00,meteohub,2013-05-22 01:15:00,
2013-05-21 20:20:00,69.3,57.0,22.30,North,0,4.0,5.0,65,0.00,,,0.00,meteohub,2013-05-22 01:20:00,
2013-05-21 20:25:00,69.1,56.8,22.30,SW,225,4.0,5.0,65,0.00,,,0.00,meteohub,2013-05-22 01:25:00,
2013-05-21 20:30:00,69.1,57.2,22.30,SW,225,2.0,5.0,66,0.00,,,0.00,meteohub,2013-05-22 01:30:00,
2013-05-21 20:35:00,68.9,57.0,22.29,North,0,3.0,5.0,66,0.00,,,0.00,meteohub,2013-05-22 01:35:00,
2013-05-21 20:40:00,68.7,57.4,22.29,North,0,4.0,4.0,67,0.00,,,0.00,meteohub,2013-05-22 01:40:00,
2013-05-21 20:45:00,68.7,57.4,22.29,NW,315,2.0,4.0,67,0.00,,,0.00,meteohub,2013-05-22 01:45:00,
2013-05-21 20:50:00,68.5,57.2,22.29,SW,225,0.0,4.0,67,0.00,,,0.00,meteohub,2013-05-22 01:50:00,
2013-05-21 20:55:00,68.4,57.4,22.28,West,270,1.0,4.0,68,0.00,,,0.00,meteohub,2013-05-22 01:55:00,
2013-05-21 21:00:00,68.0,57.9,22.28,West,270,1.0,2.0,70,0.00,,,0.00,meteohub,2013-05-22 02:00:00,
2013-05-21 21:05:00,67.6,57.9,22.28,SW,225,0.0,2.0,71,0.00,,,0.00,meteohub,2013-05-22 02:05:00,
2013-05-21 21:10:00,67.5,58.1,22.28,SW,225,0.0,2.0,72,0.00,,,0.00,meteohub,2013-05-22 02:10:00,
2013-05-21 21:15:00,66.9,57.9,22.28,West,270,0.0,1.0,73,0.00,,,0.00,meteohub,2013-05-22 02:15:00,
2013-05-21 21:20:00,66.7,57.7,22.28,SW,225,0.0,0.0,73,0.00,,,0.00,meteohub,2013-05-22 02:20:00,
2013-05-21 21:25:00,66.4,58.3,22.28,West,270,0.0,0.0,75,0.00,,,0.00,meteohub,2013-05-22 02:25:00,
2013-05-21 21:30:00,66.2,58.1,22.28,West,270,0.0,0.0,75,0.00,,,0.00,meteohub,2013-05-22 02:30:00,
2013-05-21 21:35:00,66.0,58.3,22.27,West,270,0.0,0.0,76,0.00,,,0.00,meteohub,2013-05-22 02:35:00,
2013-05-21 21:40:00,66.0,58.6,22.27,West,270,0.0,0.0,77,0.00,,,0.00,meteohub,2013-05-22 02:40:00,
2013-05-21 21:45:00,65.8,58.8,22.27,West,270,0.0,0.0,78,0.00,,,0.00,meteohub,2013-05-22 02:45:00,
2013-05-21 21:50:00,65.7,59.0,22.27,West,270,0.0,0.0,79,0.00,,,0.00,meteohub,2013-05-22 02:50:00,
2013-05-21 21:55:00,65.5,58.8,22.27,SW,225,0.0,0.0,79,0.00,,,0.00,meteohub,2013-05-22 02:55:00,
2013-05-21 22:00:00,65.5,59.2,22.27,NW,315,0.0,0.0,80,0.00,,,0.00,meteohub,2013-05-22 03:00:00,
2013-05-21 22:05:00,65.5,59.5,22.28,SW,225,1.0,2.0,81,0.00,,,0.00,meteohub,2013-05-22 03:05:00,
2013-05-21 22:10:00,65.3,59.0,22.28,NW,315,0.0,2.0,80,0.00,,,0.00,meteohub,2013-05-22 03:10:00,
2013-05-21 22:15:00,65.5,59.2,22.28,North,0,0.0,2.0,80,0.00,,,0.00,meteohub,2013-05-22 03:15:00,
2013-05-21 22:20:00,65.5,58.8,22.28,East,90,2.0,2.0,79,0.00,,,0.00,meteohub,2013-05-22 03:20:00,
2013-05-21 22:25:00,65.5,58.5,22.28,SW,225,0.0,2.0,78,0.00,,,0.00,meteohub,2013-05-22 03:25:00,
2013-05-21 22:30:00,65.5,58.8,22.29,South,180,0.0,2.0,79,0.00,,,0.00,meteohub,2013-05-22 03:30:00,
2013-05-21 22:35:00,65.5,58.8,22.29,South,180,0.0,2.0,79,0.00,,,0.00,meteohub,2013-05-22 03:35:00,
2013-05-21 22:40:00,64.9,58.6,22.30,SW,225,0.0,0.0,80,0.00,,,0.00,meteohub,2013-05-22 03:40:00,
2013-05-21 22:45:00,64.6,58.3,22.30,West,270,0.0,0.0,80,0.00,,,0.00,meteohub,2013-05-22 03:45:00,
2013-05-21 22:50:00,64.2,57.9,22.30,West,270,0.0,1.0,80,0.00,,,0.00,meteohub,2013-05-22 03:50:00,
2013-05-21 22:55:00,63.7,57.7,22.30,West,270,2.0,2.0,81,0.00,,,0.00,meteohub,2013-05-22 03:55:00,
2013-05-21 23:00:00,63.3,57.7,22.30,SW,225,1.0,2.0,82,0.00,,,0.00,meteohub,2013-05-22 04:00:00,
2013-05-21 23:01:00,63.3,57.7,22.30,SW,225,1.0,2.0,82,0.00,,,0.00,meteohub,2013-05-22 04:01:00,
2013-05-21 23:02:00,63.3,57.7,22.30,SW,225,1.0,2.0,82,0.00,,,0.00,meteohub,2013-05-22 04:02:00,
2013-05-21 23:07:00,63.3,57.7,22.30,SW,225,1.0,2.0,82,0.00,,,0.00,meteohub,2013-05-22 04:07:00,
2013-05-21 23:12:00,62.1,56.8,22.30,SW,225,0.0,2.0,83,0.00,,,0.00,meteohub,2013-05-22 04:12:00,
2013-05-21 23:17:00,61.7,56.5,22.30,West,270,0.0,1.0,83,0.00,,,0.00,meteohub,2013-05-22 04:17:00,
2013-05-21 23:22:00,61.5,56.7,22.30,West,270,0.0,1.0,84,0.00,,,0.00,meteohub,2013-05-22 04:22:00,
2013-05-21 23:27:00,61.2,56.7,22.30,West,270,0.0,0.0,85,0.00,,,0.00,meteohub,2013-05-22 04:27:00,
2013-05-21 23:32:00,61.0,56.5,22.30,West,270,0.0,0.0,85,0.00,,,0.00,meteohub,2013-05-22 04:32:00,
2013-05-21 23:37:00,60.8,56.7,22.30,West,270,0.0,0.0,86,0.00,,,0.00,meteohub,2013-05-22 04:37:00,
2013-05-21 23:42:00,60.3,56.7,22.30,West,270,0.0,0.0,88,0.00,,,0.00,meteohub,2013-05-22 04:42:00,
2013-05-21 23:47:00,60.3,57.0,22.30,SW,225,0.0,0.0,89,0.00,,,0.00,meteohub,2013-05-22 04:47:00,
2013-05-21 23:52:00,60.1,56.8,22.30,SW,225,0.0,0.0,89,0.00,,,0.00,meteohub,2013-05-22 04:52:00,
2013-05-21 23:57:00,60.3,57.4,22.30,SW,225,0.0,1.0,90,0.00,,,0.00,meteohub,2013-05-22 04:57:00,